Time;durP1;ratioP1;P1;durP2;ratioP2;P2;SDS_P1;SDS_P2;PMS_P1;PMS_P2;Temp;Humidity;BMP_temperature;BMP_pressure;BME280_temperature;BME280_humidity;BME280_pressure;Samples;Min_cycle;Max_cycle;Signal;HPM_P1;HPM_P2
2021/09/11 00:01:11;;;;;;;10.25;5.93;;;19.20;72.80;;;;;;5029221;28;20229;-68
2021/09/11 00:03:38;;;;;;;9.52;5.88;;;19.20;72.90;;;;;;5028203;28;20213;-69
2021/09/11 00:06:05;;;;;;;7.68;6.05;;;19.10;72.80;;;;;;5030436;28;20292;-68
2021/09/11 00:08:31;;;;;;;11.00;6.50;;;19.10;72.90;;;;;;5030039;28;20704;-67
2021/09/11 00:10:58;;;;;;;9.32;6.18;;;19.10;73.20;;;;;;5029984;28;20525;-68
2021/09/11 00:13:25;;;;;;;10.30;6.38;;;19.00;73.40;;;;;;5029676;28;20582;-68
2021/09/11 00:15:52;;;;;;;9.13;6.72;;;19.00;73.70;;;;;;5029607;28;20615;-67
2021/09/11 00:18:20;;;;;;;8.50;6.05;;;19.00;73.80;;;;;;5030655;28;20211;-67
2021/09/11 00:20:46;;;;;;;9.52;6.20;;;18.90;73.70;;;;;;5028196;28;20214;-68
2021/09/11 00:23:14;;;;;;;7.43;5.97;;;18.90;73.70;;;;;;5029340;28;20202;-68
2021/09/11 00:25:41;;;;;;;9.82;5.68;;;18.80;73.70;;;;;;5030866;28;20221;-67
2021/09/11 00:28:07;;;;;;;7.18;5.85;;;18.90;74.20;;;;;;5029646;28;20205;-67
2021/09/11 00:30:34;;;;;;;9.98;6.60;;;18.80;74.30;;;;;;5029497;28;20210;-68
2021/09/11 00:33:02;;;;;;;6.95;5.70;;;18.70;74.30;;;;;;5025594;28;20217;-69
2021/09/11 00:35:30;;;;;;;12.23;6.45;;;18.70;74.50;;;;;;5036784;28;20202;-67
2021/09/11 00:37:57;;;;;;;9.18;6.22;;;18.70;74.70;;;;;;5034392;28;20251;-69
2021/09/11 00:40:24;;;;;;;8.20;6.20;;;18.70;74.90;;;;;;5032993;28;20304;-67
2021/09/11 00:42:50;;;;;;;8.00;6.38;;;18.70;75.10;;;;;;5029843;28;20553;-68
2021/09/11 00:45:19;;;;;;;9.60;6.10;;;18.60;75.10;;;;;;5041454;28;20202;-69
2021/09/11 00:47:46;;;;;;;10.75;6.22;;;18.60;75.40;;;;;;5028851;28;20206;-68
2021/09/11 00:50:13;;;;;;;8.77;6.45;;;18.60;75.60;;;;;;5040071;28;20658;-68
2021/09/11 00:52:44;;;;;;;11.70;7.18;;;18.50;75.70;;;;;;5029321;28;20218;-68
2021/09/11 00:55:13;;;;;;;11.10;6.20;;;18.50;76.00;;;;;;5028012;28;20233;-69
2021/09/11 00:57:42;;;;;;;9.25;6.18;;;18.40;76.20;;;;;;5030475;28;20223;-67
2021/09/11 01:00:10;;;;;;;12.30;6.55;;;18.40;76.40;;;;;;5028521;28;20207;-68
2021/09/11 01:02:37;;;;;;;9.15;6.20;;;18.40;76.60;;;;;;5029237;28;20253;-69
2021/09/11 01:05:05;;;;;;;10.25;6.30;;;18.30;76.70;;;;;;5030008;28;20209;-68
2021/09/11 01:07:32;;;;;;;10.00;6.63;;;18.30;76.90;;;;;;5029219;28;20230;-68
2021/09/11 01:10:01;;;;;;;9.15;5.75;;;18.30;77.10;;;;;;5028546;28;21004;-69
2021/09/11 01:12:29;;;;;;;8.32;6.70;;;18.30;77.10;;;;;;5027541;28;20214;-68
2021/09/11 01:14:55;;;;;;;9.10;6.63;;;18.20;77.00;;;;;;5030239;28;20882;-67
2021/09/11 01:17:22;;;;;;;9.30;5.82;;;18.30;77.10;;;;;;5028862;28;20233;-68
2021/09/11 01:19:49;;;;;;;7.03;5.95;;;18.30;77.80;;;;;;5030505;28;20214;-68
2021/09/11 01:22:17;;;;;;;9.55;6.35;;;18.30;77.00;;;;;;5029004;28;20660;-69
2021/09/11 01:24:54;;;;;;;8.13;6.85;;;18.20;77.10;;;;;;5029195;28;20215;-68
2021/09/11 01:27:21;;;;;;;8.82;6.35;;;18.30;77.30;;;;;;5027532;28;20218;-68
2021/09/11 01:29:53;;;;;;;10.25;6.35;;;18.20;77.20;;;;;;5029715;28;20636;-69
2021/09/11 01:32:20;;;;;;;9.30;6.00;;;18.20;77.20;;;;;;5036970;28;20211;-68
2021/09/11 01:34:47;;;;;;;9.02;6.30;;;18.20;78.00;;;;;;5031695;28;20210;-68
2021/09/11 01:37:14;;;;;;;9.48;6.50;;;18.10;77.10;;;;;;5023982;28;20227;-68
2021/09/11 01:39:41;;;;;;;12.90;5.95;;;18.20;77.20;;;;;;5026888;28;20225;-69
2021/09/11 01:42:09;;;;;;;9.13;6.22;;;18.10;77.10;;;;;;5032589;28;20213;-68
2021/09/11 01:44:36;;;;;;;7.93;6.05;;;18.10;77.20;;;;;;5032276;28;20640;-69
2021/09/11 01:47:03;;;;;;;9.07;6.35;;;18.20;77.40;;;;;;5033113;28;20643;-68
2021/09/11 01:49:30;;;;;;;7.72;5.88;;;18.10;77.40;;;;;;5033563;28;20206;-69
2021/09/11 01:51:57;;;;;;;8.40;6.32;;;18.10;77.50;;;;;;5032429;28;20577;-68
2021/09/11 01:54:24;;;;;;;10.73;6.60;;;18.10;77.70;;;;;;5029845;28;20211;-68
2021/09/11 01:56:50;;;;;;;8.20;6.35;;;18.10;77.90;;;;;;5033473;28;20207;-67
2021/09/11 01:59:18;;;;;;;10.27;6.18;;;18.10;78.00;;;;;;5032118;28;20235;-67
2021/09/11 02:01:45;;;;;;;7.57;6.17;;;18.10;78.10;;;;;;5031632;28;20683;-68
2021/09/11 02:04:12;;;;;;;8.27;6.30;;;18.10;78.10;;;;;;5036275;28;20214;-68
2021/09/11 02:06:38;;;;;;;9.60;5.93;;;18.10;79.00;;;;;;5042573;28;20245;-67
2021/09/11 02:09:05;;;;;;;11.57;6.43;;;18.00;78.10;;;;;;5030614;28;20203;-67
2021/09/11 02:11:32;;;;;;;9.63;6.18;;;18.00;78.20;;;;;;5032207;28;20221;-67
2021/09/11 02:13:59;;;;;;;8.17;6.60;;;18.00;78.50;;;;;;5031750;28;20210;-68
2021/09/11 02:16:27;;;;;;;7.78;5.90;;;18.00;78.50;;;;;;5031797;28;20597;-68
2021/09/11 02:18:53;;;;;;;11.32;6.55;;;18.00;78.70;;;;;;5033042;28;20234;-68
2021/09/11 02:21:20;;;;;;;9.13;6.65;;;18.00;78.80;;;;;;5031451;28;20600;-68
2021/09/11 02:23:48;;;;;;;9.23;6.13;;;18.00;78.90;;;;;;5031761;28;20203;-67
2021/09/11 02:26:14;;;;;;;8.85;6.15;;;18.00;79.10;;;;;;5032335;28;20280;-67
2021/09/11 02:28:43;;;;;;;10.50;6.72;;;18.00;79.30;;;;;;5033020;28;20203;-68
2021/09/11 02:31:10;;;;;;;9.40;6.95;;;18.00;79.50;;;;;;5029609;28;20663;-68
2021/09/11 02:33:38;;;;;;;8.13;6.38;;;17.90;79.60;;;;;;5039618;28;20210;-67
2021/09/11 02:36:05;;;;;;;8.40;6.90;;;17.90;79.80;;;;;;5034907;28;20227;-68
2021/09/11 02:38:32;;;;;;;9.30;6.03;;;17.90;80.10;;;;;;5024615;28;20231;-68
2021/09/11 02:40:59;;;;;;;10.23;6.10;;;17.80;80.30;;;;;;5031332;28;20214;-68
2021/09/11 02:43:25;;;;;;;7.93;6.18;;;17.80;80.40;;;;;;5032482;28;20213;-67
2021/09/11 02:45:52;;;;;;;7.90;6.35;;;17.80;80.70;;;;;;5031398;28;20560;-68
2021/09/11 02:48:19;;;;;;;10.20;6.87;;;17.80;80.90;;;;;;5031206;28;20297;-69
2021/09/11 02:50:47;;;;;;;8.70;6.82;;;17.80;81.10;;;;;;5039867;28;20281;-68
2021/09/11 02:53:14;;;;;;;8.85;6.45;;;17.80;81.30;;;;;;5030007;28;20612;-69
2021/09/11 02:55:41;;;;;;;10.90;6.22;;;17.70;81.40;;;;;;5032290;28;20660;-68
2021/09/11 02:58:08;;;;;;;10.03;6.83;;;17.70;81.50;;;;;;5031187;28;20604;-68
2021/09/11 03:00:35;;;;;;;9.33;6.47;;;17.70;81.70;;;;;;5030609;28;20210;-68
2021/09/11 03:03:02;;;;;;;8.18;6.05;;;17.70;81.90;;;;;;5031702;28;20215;-67
2021/09/11 03:05:29;;;;;;;9.15;6.45;;;17.60;82.00;;;;;;5028102;28;20203;-68
2021/09/11 03:07:57;;;;;;;10.63;7.03;;;17.70;82.30;;;;;;5025555;28;20230;-67
2021/09/11 03:10:24;;;;;;;9.10;7.00;;;17.70;82.40;;;;;;5026450;28;20214;-68
2021/09/11 03:12:50;;;;;;;8.87;6.60;;;17.60;82.40;;;;;;5030925;28;20214;-67
2021/09/11 03:15:17;;;;;;;10.82;6.47;;;17.60;82.50;;;;;;5030131;28;20214;-69
2021/09/11 03:17:44;;;;;;;11.98;6.55;;;17.50;82.50;;;;;;5031479;28;20207;-68
2021/09/11 03:20:11;;;;;;;9.20;7.60;;;17.50;82.70;;;;;;5031243;28;20238;-67
2021/09/11 03:22:38;;;;;;;9.05;6.90;;;17.50;82.70;;;;;;5032048;28;20233;-68
2021/09/11 03:25:06;;;;;;;8.47;6.97;;;17.40;82.80;;;;;;5026464;28;20207;-68
2021/09/11 03:27:33;;;;;;;9.48;7.70;;;17.40;83.30;;;;;;5031872;28;20238;-67
2021/09/11 03:30:00;;;;;;;12.37;7.23;;;17.40;83.50;;;;;;5044307;28;20203;-67
2021/09/11 03:32:26;;;;;;;13.13;7.77;;;17.40;83.80;;;;;;5030301;28;20233;-69
2021/09/11 03:34:53;;;;;;;12.10;7.47;;;17.30;84.20;;;;;;5029713;28;20211;-68
2021/09/11 03:37:20;;;;;;;12.45;8.40;;;17.30;84.50;;;;;;5026669;28;20226;-68
2021/09/11 03:39:46;;;;;;;11.25;8.10;;;17.20;84.80;;;;;;5029896;28;20233;-68
2021/09/11 03:42:14;;;;;;;11.13;7.90;;;17.20;85.00;;;;;;5031065;28;20225;-68
2021/09/11 03:44:41;;;;;;;9.35;8.02;;;17.10;85.20;;;;;;5028514;28;20206;-68
2021/09/11 03:47:08;;;;;;;10.60;7.97;;;17.10;85.60;;;;;;5030602;28;20207;-68
2021/09/11 03:49:35;;;;;;;10.18;8.38;;;17.00;85.60;;;;;;5029288;28;20643;-69
2021/09/11 03:52:01;;;;;;;12.10;7.97;;;16.90;85.80;;;;;;5044937;28;20206;-67
2021/09/11 03:54:28;;;;;;;10.87;7.90;;;16.90;86.10;;;;;;5028664;28;20211;-68
2021/09/11 03:56:55;;;;;;;11.13;8.43;;;16.90;86.40;;;;;;5025180;28;20209;-69
2021/09/11 03:59:23;;;;;;;11.33;7.97;;;16.90;86.50;;;;;;5029240;28;20226;-68
2021/09/11 04:01:50;;;;;;;12.00;9.07;;;16.90;86.70;;;;;;5028742;28;20625;-68
2021/09/11 04:04:17;;;;;;;13.50;8.43;;;16.80;86.80;;;;;;5027003;28;20210;-68
2021/09/11 04:06:44;;;;;;;11.77;8.73;;;16.80;87.10;;;;;;5027636;28;20242;-69
2021/09/11 04:09:10;;;;;;;11.25;8.40;;;16.80;87.30;;;;;;5030603;28;20305;-68
2021/09/11 04:11:37;;;;;;;14.33;9.00;;;16.80;87.50;;;;;;5030950;28;20213;-68
2021/09/11 04:14:04;;;;;;;12.07;8.07;;;16.70;87.80;;;;;;5020084;28;20582;-69
2021/09/11 04:16:32;;;;;;;11.93;8.97;;;16.70;88.00;;;;;;5027675;28;20206;-69
2021/09/11 04:18:59;;;;;;;13.23;8.33;;;16.70;88.20;;;;;;5030938;28;20594;-68
2021/09/11 04:21:25;;;;;;;10.80;8.40;;;16.70;88.40;;;;;;5029428;28;20213;-69
2021/09/11 04:23:52;;;;;;;11.70;8.53;;;16.70;88.60;;;;;;5029091;28;20205;-68
2021/09/11 04:26:19;;;;;;;14.60;8.47;;;16.70;88.70;;;;;;5030430;28;20198;-68
2021/09/11 04:28:46;;;;;;;11.10;8.60;;;16.70;88.70;;;;;;5029985;28;20217;-68
2021/09/11 04:31:12;;;;;;;13.10;9.27;;;16.70;88.80;;;;;;5028098;28;20237;-68
2021/09/11 04:33:40;;;;;;;10.77;8.77;;;16.70;89.10;;;;;;5030968;28;20213;-68
2021/09/11 04:36:08;;;;;;;16.20;9.43;;;16.70;89.20;;;;;;5029674;28;20236;-68
2021/09/11 04:38:36;;;;;;;12.77;8.70;;;16.80;89.40;;;;;;5022189;28;20252;-68
2021/09/11 04:41:02;;;;;;;11.30;7.80;;;16.80;89.40;;;;;;5030365;28;20459;-68
2021/09/11 04:43:29;;;;;;;14.77;9.53;;;16.80;89.30;;;;;;5028832;28;20215;-69
2021/09/11 04:45:57;;;;;;;11.03;9.20;;;16.80;89.10;;;;;;5030098;28;20206;-68
2021/09/11 04:48:23;;;;;;;11.70;8.13;;;16.90;89.30;;;;;;5028217;28;20210;-68
2021/09/11 04:50:52;;;;;;;12.50;9.00;;;16.90;89.30;;;;;;5036487;28;20202;-68
2021/09/11 04:53:19;;;;;;;10.60;8.33;;;16.90;89.30;;;;;;5036332;28;20199;-68
2021/09/11 04:55:45;;;;;;;13.93;8.57;;;17.00;89.40;;;;;;5029315;28;20217;-67
2021/09/11 04:58:12;;;;;;;12.00;8.67;;;17.00;89.30;;;;;;5028785;28;20218;-68
2021/09/11 05:00:39;;;;;;;14.30;9.20;;;17.00;89.30;;;;;;5027763;28;20206;-69
2021/09/11 05:03:06;;;;;;;13.23;9.20;;;17.00;89.40;;;;;;5022706;28;20310;-68
2021/09/11 05:05:33;;;;;;;10.20;8.40;;;17.00;89.30;;;;;;5025522;28;20741;-67
2021/09/11 05:08:01;;;;;;;15.50;9.00;;;17.10;89.40;;;;;;5029105;28;20241;-68
2021/09/11 05:10:29;;;;;;;11.53;8.73;;;17.10;89.30;;;;;;5024539;28;20212;-69
2021/09/11 05:12:55;;;;;;;10.35;8.73;;;17.20;89.40;;;;;;5030838;28;20209;-68
2021/09/11 05:15:23;;;;;;;12.03;9.30;;;17.30;89.20;;;;;;5029106;28;20217;-68
2021/09/11 05:17:49;;;;;;;13.37;9.07;;;17.30;89.10;;;;;;5031656;28;20245;-69
2021/09/11 05:20:16;;;;;;;15.27;9.67;;;17.30;89.10;;;;;;5029359;28;20367;-68
2021/09/11 05:22:43;;;;;;;14.57;9.30;;;17.40;89.00;;;;;;5031096;28;20246;-68
2021/09/11 05:25:13;;;;;;;14.20;8.20;;;17.40;88.70;;;;;;5032236;28;20210;-69
2021/09/11 05:27:40;;;;;;;15.17;9.23;;;17.40;88.70;;;;;;5032961;28;20488;-67
2021/09/11 05:30:08;;;;;;;12.27;8.60;;;17.50;88.80;;;;;;5033680;28;20644;-69
2021/09/11 05:32:35;;;;;;;11.97;8.50;;;17.50;89.50;;;;;;5024194;28;20211;-69
2021/09/11 05:35:02;;;;;;;10.03;7.63;;;17.60;88.80;;;;;;5028596;28;20207;-67
2021/09/11 05:37:29;;;;;;;12.13;8.63;;;17.60;88.10;;;;;;5032656;28;20245;-68
2021/09/11 05:39:56;;;;;;;10.80;8.50;;;17.60;87.90;;;;;;5024182;28;20221;-67
2021/09/11 05:42:24;;;;;;;13.13;8.47;;;17.70;87.60;;;;;;5021566;28;20569;-69
2021/09/11 05:44:51;;;;;;;11.07;8.40;;;17.70;87.50;;;;;;5031140;28;20237;-67
2021/09/11 05:47:17;;;;;;;12.85;8.80;;;17.70;87.30;;;;;;5022660;28;20538;-69
2021/09/11 05:49:44;;;;;;;13.60;8.60;;;17.70;87.10;;;;;;5018688;28;20204;-67
2021/09/11 05:52:11;;;;;;;12.97;7.97;;;17.70;87.10;;;;;;5017352;28;20221;-68
2021/09/11 05:54:38;;;;;;;12.20;8.30;;;17.70;87.10;;;;;;5016099;28;20233;-68
2021/09/11 05:57:05;;;;;;;11.23;8.37;;;17.70;87.00;;;;;;5023054;28;20547;-68
2021/09/11 05:59:33;;;;;;;12.10;7.97;;;17.80;86.90;;;;;;5028467;28;20218;-69
2021/09/11 06:02:00;;;;;;;14.00;8.23;;;17.80;86.60;;;;;;5029916;28;20528;-68
2021/09/11 06:04:26;;;;;;;12.25;7.95;;;17.90;86.50;;;;;;5027117;28;20212;-68
2021/09/11 06:06:54;;;;;;;10.23;7.53;;;18.00;86.40;;;;;;5032438;28;20257;-69
2021/09/11 06:09:21;;;;;;;12.40;8.23;;;18.00;86.10;;;;;;5026531;28;20241;-68
2021/09/11 06:11:48;;;;;;;11.60;7.40;;;18.10;85.80;;;;;;5015796;28;20245;-68
2021/09/11 06:14:14;;;;;;;10.90;7.80;;;18.20;85.50;;;;;;5041666;28;20613;-69
2021/09/11 06:16:42;;;;;;;11.77;8.15;;;18.30;85.00;;;;;;5031231;28;20214;-68
2021/09/11 06:19:09;;;;;;;10.57;7.90;;;18.60;85.00;;;;;;5030077;28;20234;-67
2021/09/11 06:21:36;;;;;;;10.32;8.43;;;18.80;84.10;;;;;;5032302;28;20214;-70
2021/09/11 06:24:03;;;;;;;10.70;7.53;;;18.90;83.70;;;;;;5025915;28;20213;-68
2021/09/11 06:26:29;;;;;;;12.40;8.52;;;18.90;83.00;;;;;;5032788;28;20572;-68
2021/09/11 06:28:57;;;;;;;12.35;8.13;;;19.00;83.50;;;;;;5039461;28;20217;-69
2021/09/11 06:31:24;;;;;;;11.05;7.78;;;19.00;83.60;;;;;;5031195;28;20210;-69
2021/09/11 06:33:52;;;;;;;16.95;7.85;;;19.00;83.70;;;;;;5036126;28;20207;-68
2021/09/11 06:36:18;;;;;;;9.27;7.93;;;19.10;83.70;;;;;;5031880;28;20575;-67
2021/09/11 06:38:45;;;;;;;12.50;8.45;;;19.10;83.50;;;;;;5025757;28;20215;-69
2021/09/11 06:41:12;;;;;;;13.77;8.05;;;19.20;83.20;;;;;;5031876;28;20567;-67
2021/09/11 06:43:39;;;;;;;10.75;7.32;;;19.20;82.60;;;;;;5033746;28;20214;-67
2021/09/11 06:46:06;;;;;;;12.35;7.25;;;19.20;82.20;;;;;;5026292;28;20214;-67
2021/09/11 06:48:33;;;;;;;8.70;6.55;;;19.30;82.00;;;;;;5024406;28;20466;-67
2021/09/11 06:51:01;;;;;;;11.27;7.13;;;19.30;81.60;;;;;;5022158;28;20287;-67
2021/09/11 06:53:28;;;;;;;10.75;7.25;;;19.40;81.70;;;;;;5023723;28;20237;-66
2021/09/11 06:55:54;;;;;;;8.95;7.15;;;19.40;81.20;;;;;;5027727;28;20621;-68
2021/09/11 06:58:21;;;;;;;12.10;7.07;;;19.50;80.80;;;;;;5030637;28;20643;-67
2021/09/11 07:00:48;;;;;;;10.50;7.03;;;19.60;80.50;;;;;;5029730;28;20319;-67
2021/09/11 07:03:16;;;;;;;10.23;6.65;;;19.60;80.00;;;;;;5030181;28;20423;-67
2021/09/11 07:05:43;;;;;;;11.00;6.85;;;19.70;80.10;;;;;;5030878;28;20222;-68
2021/09/11 07:08:11;;;;;;;11.80;7.75;;;19.80;79.90;;;;;;5020116;28;20203;-68
2021/09/11 07:10:38;;;;;;;15.32;7.38;;;19.80;79.80;;;;;;5022710;28;20203;-68
2021/09/11 07:13:05;;;;;;;14.35;7.30;;;19.90;79.60;;;;;;5023073;28;20588;-67
2021/09/11 07:15:32;;;;;;;10.63;6.65;;;19.90;79.40;;;;;;5022261;28;20211;-67
2021/09/11 07:17:58;;;;;;;8.68;6.35;;;20.00;79.50;;;;;;5027023;28;20573;-68
2021/09/11 07:20:26;;;;;;;15.57;7.80;;;20.00;79.50;;;;;;5023413;28;20231;-67
2021/09/11 07:22:53;;;;;;;13.02;8.25;;;20.10;79.80;;;;;;5020025;28;20588;-67
2021/09/11 07:25:21;;;;;;;9.32;7.45;;;20.20;79.40;;;;;;5024892;28;20209;-67
2021/09/11 07:27:48;;;;;;;9.52;6.85;;;20.30;79.00;;;;;;5024794;28;20213;-66
2021/09/11 07:30:14;;;;;;;11.40;7.07;;;20.40;78.70;;;;;;5022788;28;20210;-67
2021/09/11 07:32:41;;;;;;;9.55;7.07;;;20.50;78.70;;;;;;5020361;28;20218;-67
2021/09/11 07:35:08;;;;;;;11.77;6.82;;;20.60;78.40;;;;;;5019862;28;20202;-67
2021/09/11 07:37:35;;;;;;;8.98;6.53;;;20.70;77.70;;;;;;5020082;28;20230;-66
2021/09/11 07:40:02;;;;;;;9.23;7.10;;;20.90;77.70;;;;;;5022821;28;20223;-67
2021/09/11 07:42:30;;;;;;;10.05;6.78;;;21.20;77.20;;;;;;5023892;28;20203;-66
2021/09/11 07:44:57;;;;;;;12.20;7.68;;;21.40;76.90;;;;;;5031987;28;20207;-66
2021/09/11 07:47:23;;;;;;;10.70;6.65;;;21.60;76.60;;;;;;5028571;28;20722;-68
2021/09/11 07:49:50;;;;;;;12.80;6.75;;;21.80;75.90;;;;;;5022807;28;20214;-67
2021/09/11 07:52:18;;;;;;;9.77;6.55;;;22.00;75.30;;;;;;5031400;28;20563;-68
2021/09/11 07:54:44;;;;;;;10.02;5.95;;;22.20;74.60;;;;;;5030930;28;20198;-67
2021/09/11 07:57:11;;;;;;;11.80;6.35;;;22.40;74.30;;;;;;5029444;28;20211;-67
2021/09/11 07:59:39;;;;;;;9.43;5.72;;;22.60;73.70;;;;;;5029363;28;20302;-67
2021/09/11 08:02:06;;;;;;;9.57;5.63;;;22.70;72.80;;;;;;5024213;28;20203;-67
2021/09/11 08:04:33;;;;;;;9.15;5.57;;;22.90;72.60;;;;;;5029130;28;20210;-66
2021/09/11 08:07:00;;;;;;;9.27;5.43;;;23.10;72.30;;;;;;5029180;28;20242;-67
2021/09/11 08:09:27;;;;;;;11.98;5.32;;;23.30;71.60;;;;;;5029649;28;20667;-67
2021/09/11 08:11:53;;;;;;;12.18;5.63;;;23.50;71.20;;;;;;5030724;28;20784;-66
2021/09/11 08:14:20;;;;;;;8.27;5.22;;;23.60;70.70;;;;;;5030067;28;20309;-68
2021/09/11 08:16:48;;;;;;;8.98;5.93;;;23.70;70.10;;;;;;5030558;28;20596;-67
2021/09/11 08:19:15;;;;;;;10.98;5.45;;;24.00;70.10;;;;;;5027442;28;20508;-66
2021/09/11 08:21:42;;;;;;;7.55;5.28;;;24.10;69.30;;;;;;5029844;28;20219;-66
2021/09/11 08:24:09;;;;;;;6.47;4.85;;;24.30;68.70;;;;;;5030199;28;20598;-67
2021/09/11 08:26:36;;;;;;;10.60;5.18;;;24.40;68.00;;;;;;5030097;28;20210;-67
2021/09/11 08:29:02;;;;;;;11.68;4.85;;;24.60;67.50;;;;;;5028016;28;20203;-68
2021/09/11 08:31:29;;;;;;;19.52;4.93;;;24.80;66.50;;;;;;5030142;28;20216;-66
2021/09/11 08:33:58;;;;;;;8.65;4.80;;;25.00;66.10;;;;;;5029225;28;20217;-66
2021/09/11 08:36:24;;;;;;;9.77;4.85;;;25.20;66.00;;;;;;5030255;28;20229;-68
2021/09/11 08:38:51;;;;;;;10.57;4.88;;;25.50;64.80;;;;;;5027449;28;20202;-67
2021/09/11 08:41:18;;;;;;;9.77;5.15;;;25.50;64.40;;;;;;5031034;28;20233;-68
2021/09/11 08:43:45;;;;;;;9.00;4.93;;;25.70;64.60;;;;;;5030731;28;20210;-68
2021/09/11 08:46:11;;;;;;;6.72;4.45;;;25.90;63.80;;;;;;5027078;28;20215;-68
2021/09/11 08:48:38;;;;;;;6.38;4.40;;;26.10;63.20;;;;;;5020855;28;20683;-68
2021/09/11 08:51:07;;;;;;;6.93;4.75;;;26.40;62.90;;;;;;5032252;28;20245;-66
2021/09/11 08:53:36;;;;;;;5.60;4.82;;;26.60;61.80;;;;;;5034447;28;20214;-68
2021/09/11 08:56:03;;;;;;;8.00;4.88;;;26.80;61.40;;;;;;5034314;28;20577;-69
2021/09/11 08:58:30;;;;;;;9.57;4.75;;;27.00;60.80;;;;;;5029756;28;20206;-67
2021/09/11 09:00:58;;;;;;;9.43;5.10;;;27.20;60.20;;;;;;5019515;28;20321;-67
2021/09/11 09:03:30;;;;;;;9.10;4.85;;;27.40;59.90;;;;;;5035319;28;20209;-69
2021/09/11 09:06:15;;;;;;;11.80;4.95;;;27.60;59.80;;;;;;5022709;28;20246;-67
2021/09/11 09:08:44;;;;;;;9.23;4.25;;;27.80;59.00;;;;;;5028909;28;20233;-68
2021/09/11 09:11:26;;;;;;;6.18;4.55;;;28.20;58.60;;;;;;5033584;28;20206;-67
2021/09/11 09:13:57;;;;;;;8.52;4.47;;;29.70;57.70;;;;;;5027600;28;20198;-67
2021/09/11 09:16:25;;;;;;;5.65;4.40;;;32.10;52.90;;;;;;5033415;28;20230;-66
2021/09/11 09:18:52;;;;;;;6.22;4.00;;;34.00;48.80;;;;;;5034047;28;20213;-68
2021/09/11 09:21:23;;;;;;;9.85;4.72;;;35.10;45.90;;;;;;5034328;28;20241;-67
2021/09/11 09:23:51;;;;;;;6.20;3.92;;;36.00;44.70;;;;;;5034302;28;20203;-68
2021/09/11 09:26:18;;;;;;;10.30;3.83;;;36.80;42.70;;;;;;5030610;28;20236;-67
2021/09/11 09:29:02;;;;;;;4.82;3.83;;;37.20;41.90;;;;;;5033950;28;20570;-67
2021/09/11 09:31:29;;;;;;;9.50;4.25;;;37.40;41.20;;;;;;5033421;28;20229;-67
2021/09/11 09:33:56;;;;;;;6.00;4.57;;;37.40;40.20;;;;;;5033862;28;20225;-68
2021/09/11 09:36:30;;;;;;;9.40;4.10;;;37.60;40.20;;;;;;5032807;28;20297;-67
2021/09/11 09:39:00;;;;;;;10.88;4.18;;;37.80;39.50;;;;;;5033359;28;20199;-66
2021/09/11 09:41:40;;;;;;;5.00;3.90;;;37.70;39.00;;;;;;5033871;28;20227;-66
2021/09/11 09:44:08;;;;;;;4.65;3.70;;;37.40;39.90;;;;;;5033918;28;20218;-67
2021/09/11 09:46:39;;;;;;;5.07;3.60;;;37.30;39.60;;;;;;5032961;28;20581;-67
2021/09/11 09:49:06;;;;;;;6.60;3.80;;;37.10;40.00;;;;;;5033542;28;20238;-66
2021/09/11 09:51:35;;;;;;;7.03;3.53;;;37.00;40.10;;;;;;5033540;28;20210;-68
2021/09/11 09:54:01;;;;;;;5.88;4.10;;;36.80;39.80;;;;;;5033394;28;20208;-68
2021/09/11 09:56:28;;;;;;;4.30;3.45;;;36.70;40.00;;;;;;5032965;28;20211;-67
2021/09/11 09:58:56;;;;;;;5.80;3.83;;;36.30;39.30;;;;;;5033395;28;20217;-66
2021/09/11 10:01:22;;;;;;;6.90;3.45;;;35.70;39.70;;;;;;5033107;28;20237;-68
2021/09/11 10:03:49;;;;;;;5.88;3.65;;;35.40;40.50;;;;;;5033033;28;20578;-68
2021/09/11 10:06:21;;;;;;;6.15;3.58;;;35.30;40.40;;;;;;5032021;28;20329;-68
2021/09/11 10:08:52;;;;;;;6.72;3.30;;;35.10;41.00;;;;;;5032797;28;20514;-67
2021/09/11 10:11:20;;;;;;;6.95;3.70;;;35.20;40.90;;;;;;5033556;28;20195;-68
2021/09/11 10:13:59;;;;;;;7.50;3.13;;;35.20;40.90;;;;;;5032994;28;20210;-68
2021/09/11 10:16:31;;;;;;;7.65;3.55;;;34.80;40.60;;;;;;5027133;28;20277;-68
2021/09/11 10:18:58;;;;;;;7.15;3.95;;;34.50;41.90;;;;;;5033177;28;20199;-67
2021/09/11 10:21:37;;;;;;;6.88;3.13;;;34.20;41.10;;;;;;5031357;28;20233;-68
2021/09/11 10:24:28;;;;;;;9.95;3.35;;;34.00;41.70;;;;;;5032954;28;20241;-69
2021/09/11 10:26:58;;;;;;;4.95;3.38;;;33.90;42.50;;;;;;5032729;28;20215;-68
2021/09/11 10:29:53;;;;;;;4.60;3.55;;;34.10;42.00;;;;;;5033252;28;20241;-68
2021/09/11 10:32:26;;;;;;;6.03;3.53;;;34.00;42.20;;;;;;5032752;28;20209;-69
2021/09/11 10:34:55;;;;;;;9.25;3.50;;;34.00;42.00;;;;;;5032703;28;20565;-67
2021/09/11 10:37:41;;;;;;;6.43;3.50;;;34.10;42.20;;;;;;5027258;28;20273;-67
2021/09/11 10:40:21;;;;;;;8.40;3.72;;;34.00;42.20;;;;;;5031962;28;20668;-68
2021/09/11 10:43:10;;;;;;;7.72;2.90;;;34.00;41.90;;;;;;5031752;28;20210;-68
2021/09/11 10:45:42;;;;;;;6.30;3.65;;;34.00;41.30;;;;;;5021455;28;20209;-69
2021/09/11 10:48:43;;;;;;;3.80;2.90;;;34.10;41.40;;;;;;5031903;28;20210;-67
2021/09/11 10:51:36;;;;;;;3.63;3.22;;;34.10;41.10;;;;;;5041070;28;20233;-68
2021/09/11 10:54:32;;;;;;;8.80;3.13;;;34.20;41.10;;;;;;5033890;28;20342;-68
2021/09/11 10:57:10;;;;;;;5.22;3.13;;;34.10;41.40;;;;;;5032089;28;20564;-68
2021/09/11 10:59:39;;;;;;;4.78;2.90;;;34.10;41.10;;;;;;5031736;28;20381;-68
2021/09/11 11:02:19;;;;;;;6.25;3.22;;;34.00;41.40;;;;;;5031758;28;20684;-67
2021/09/11 11:04:58;;;;;;;4.28;2.90;;;33.80;41.10;;;;;;5032307;28;20209;-68
2021/09/11 11:07:26;;;;;;;8.13;2.70;;;33.70;41.60;;;;;;5032241;28;20244;-67
2021/09/11 11:09:55;;;;;;;4.95;3.20;;;33.60;41.90;;;;;;5032049;28;20207;-68
2021/09/11 11:12:26;;;;;;;6.07;3.45;;;33.70;42.00;;;;;;5031143;28;20206;-68
2021/09/11 11:14:58;;;;;;;7.70;2.97;;;33.80;41.70;;;;;;5032631;28;20648;-67
2021/09/11 11:17:25;;;;;;;4.07;2.95;;;33.70;41.70;;;;;;5031903;28;20699;-67
2021/09/11 11:19:53;;;;;;;4.03;2.72;;;33.90;41.70;;;;;;5031636;28;20217;-68
2021/09/11 11:22:26;;;;;;;4.43;2.90;;;34.00;41.90;;;;;;5031604;28;20234;-68
2021/09/11 11:24:54;;;;;;;6.00;3.33;;;34.00;41.90;;;;;;5018180;28;20206;-67
2021/09/11 11:27:24;;;;;;;6.60;3.13;;;33.90;41.80;;;;;;5032012;28;20647;-67
2021/09/11 11:29:53;;;;;;;6.85;3.33;;;34.00;41.90;;;;;;5031141;28;20202;-68
2021/09/11 11:32:21;;;;;;;4.55;3.53;;;34.00;41.90;;;;;;5031609;28;20217;-69
2021/09/11 11:34:52;;;;;;;5.38;2.88;;;34.00;42.10;;;;;;5031431;28;20202;-67
2021/09/11 11:37:19;;;;;;;5.95;3.15;;;33.90;42.00;;;;;;5031457;28;20230;-68
2021/09/11 11:39:46;;;;;;;3.95;3.22;;;34.00;42.20;;;;;;5031381;28;20210;-67
2021/09/11 11:42:20;;;;;;;6.70;3.10;;;34.00;42.30;;;;;;5031129;28;20226;-69
2021/09/11 11:44:51;;;;;;;5.32;2.78;;;34.10;42.20;;;;;;5032288;28;20289;-68
2021/09/11 11:47:39;;;;;;;5.45;3.08;;;34.10;42.00;;;;;;5031593;28;20218;-67
2021/09/11 11:50:15;;;;;;;4.65;2.80;;;34.00;42.20;;;;;;5031701;28;20202;-68
2021/09/11 11:52:43;;;;;;;5.70;3.15;;;33.90;42.80;;;;;;5028887;28;20206;-67
2021/09/11 11:55:12;;;;;;;4.38;3.13;;;34.10;42.40;;;;;;5031096;28;20210;-67
2021/09/11 11:57:39;;;;;;;3.28;2.70;;;34.20;42.40;;;;;;5023035;28;20647;-66
2021/09/11 12:00:10;;;;;;;3.83;2.97;;;34.10;42.00;;;;;;5030913;28;20727;-67
2021/09/11 12:02:38;;;;;;;4.70;3.20;;;33.70;42.70;;;;;;5031021;28;20650;-65
2021/09/11 12:05:14;;;;;;;4.57;3.25;;;33.40;43.60;;;;;;5030840;28;20344;-68
2021/09/11 12:07:42;;;;;;;6.15;3.28;;;33.20;43.80;;;;;;5030445;28;20328;-67
2021/09/11 12:10:15;;;;;;;4.82;3.08;;;33.10;43.50;;;;;;5031403;28;20230;-66
2021/09/11 12:12:47;;;;;;;5.07;3.00;;;32.90;44.50;;;;;;5030170;28;20202;-66
2021/09/11 12:15:17;;;;;;;7.82;3.53;;;33.00;44.50;;;;;;5023996;28;20203;-67
2021/09/11 12:17:59;;;;;;;6.15;3.08;;;33.10;44.20;;;;;;5028201;28;20195;-67
2021/09/11 12:20:27;;;;;;;3.55;2.97;;;33.10;44.60;;;;;;5029472;28;20206;-66
2021/09/11 12:23:10;;;;;;;5.93;3.47;;;33.20;45.20;;;;;;5033209;28;20683;-70
2021/09/11 12:25:59;;;;;;;5.35;3.60;;;33.30;44.30;;;;;;5023497;28;20285;-68
2021/09/11 12:28:48;;;;;;;6.43;3.60;;;33.30;44.20;;;;;;5025859;28;20636;-68
2021/09/11 12:31:29;;;;;;;7.63;4.40;;;33.30;44.40;;;;;;5028692;28;20214;-69
2021/09/11 12:33:57;;;;;;;8.00;3.20;;;33.40;44.60;;;;;;5017838;28;20290;-67
2021/09/11 12:36:29;;;;;;;4.55;3.20;;;33.50;44.10;;;;;;5027786;28;20222;-68
2021/09/11 12:38:57;;;;;;;5.93;3.58;;;33.40;44.10;;;;;;5028998;28;20207;-68
2021/09/11 12:41:24;;;;;;;7.70;3.50;;;33.40;44.40;;;;;;5029052;28;20237;-67
2021/09/11 12:43:51;;;;;;;6.70;3.90;;;33.50;44.60;;;;;;5029384;28;20203;-68
2021/09/11 12:46:34;;;;;;;9.80;3.55;;;33.60;44.40;;;;;;5029649;28;20687;-67
2021/09/11 12:49:02;;;;;;;5.22;3.55;;;33.70;44.60;;;;;;5026487;28;20211;-65
2021/09/11 12:51:29;;;;;;;5.78;3.42;;;33.70;44.50;;;;;;5028502;28;20222;-66